sensor_id;sensor_type;location;lat;lon;timestamp;pressure;altitude;pressure_sealevel;temperature;humidity
31092;BME280;67728;53.122;12.776;2023-04-27T00:01:24;100961.22;;;2.73;78.18
31092;BME280;67728;53.122;12.776;2023-04-27T00:02:55;100952.53;;;2.65;79.05
31092;BME280;67728;53.122;12.776;2023-04-27T00:04:27;100953.03;;;2.48;78.71
31092;BME280;67728;53.122;12.776;2023-04-27T00:05:58;100956.28;;;2.40;80.13
31092;BME280;67728;53.122;12.776;2023-04-27T00:07:29;100950.16;;;2.34;80.06
31092;BME280;67728;53.122;12.776;2023-04-27T00:09:01;100951.72;;;2.27;80.14
31092;BME280;67728;53.122;12.776;2023-04-27T00:10:34;100952.34;;;2.16;79.58
31092;BME280;67728;53.122;12.776;2023-04-27T00:12:06;100942.44;;;2.31;80.22
31092;BME280;67728;53.122;12.776;2023-04-27T00:13:38;100944.34;;;2.02;79.59
31092;BME280;67728;53.122;12.776;2023-04-27T00:15:10;100949.88;;;2.20;79.48
31092;BME280;67728;53.122;12.776;2023-04-27T00:16:41;100946.06;;;2.03;79.28
31092;BME280;67728;53.122;12.776;2023-04-27T00:18:14;100953.94;;;2.12;78.81
31092;BME280;67728;53.122;12.776;2023-04-27T00:19:46;100945.34;;;2.09;78.92
31092;BME280;67728;53.122;12.776;2023-04-27T00:21:17;100947.03;;;2.08;79.79
31092;BME280;67728;53.122;12.776;2023-04-27T00:22:49;100948.81;;;2.11;78.60
31092;BME280;67728;53.122;12.776;2023-04-27T00:24:21;100943.47;;;2.02;79.75
31092;BME280;67728;53.122;12.776;2023-04-27T00:25:52;100949.47;;;2.02;79.33
31092;BME280;67728;53.122;12.776;2023-04-27T00:27:26;100949.47;;;2.02;80.14
31092;BME280;67728;53.122;12.776;2023-04-27T00:28:56;100953.81;;;1.70;80.05
31092;BME280;67728;53.122;12.776;2023-04-27T00:30:28;100951.56;;;1.83;80.13
31092;BME280;67728;53.122;12.776;2023-04-27T00:32:00;100951.63;;;1.86;79.93
31092;BME280;67728;53.122;12.776;2023-04-27T00:33:31;100951.50;;;1.79;80.73
31092;BME280;67728;53.122;12.776;2023-04-27T00:35:02;100952.34;;;1.80;79.73
31092;BME280;67728;53.122;12.776;2023-04-27T00:36:34;100951.63;;;1.86;80.68
31092;BME280;67728;53.122;12.776;2023-04-27T00:38:06;100953.41;;;1.88;80.23
31092;BME280;67728;53.122;12.776;2023-04-27T00:39:37;100958.59;;;1.93;80.51
31092;BME280;67728;53.122;12.776;2023-04-27T00:41:09;100959.53;;;1.95;80.43
31092;BME280;67728;53.122;12.776;2023-04-27T00:42:42;100958.03;;;2.04;79.60
31092;BME280;67728;53.122;12.776;2023-04-27T00:44:21;100958.03;;;2.04;80.37
31092;BME280;67728;53.122;12.776;2023-04-27T00:45:53;100965.81;;;2.09;80.06
31092;BME280;67728;53.122;12.776;2023-04-27T00:47:24;100963.16;;;2.06;80.12
31092;BME280;67728;53.122;12.776;2023-04-27T00:48:55;100965.38;;;1.91;79.83
31092;BME280;67728;53.122;12.776;2023-04-27T00:50:28;100962.44;;;1.74;79.82
31092;BME280;67728;53.122;12.776;2023-04-27T00:52:00;100971.94;;;1.79;80.82
31092;BME280;67728;53.122;12.776;2023-04-27T00:53:30;100968.44;;;1.76;80.38
31092;BME280;67728;53.122;12.776;2023-04-27T00:55:04;100976.09;;;1.74;80.63
31092;BME280;67728;53.122;12.776;2023-04-27T00:56:35;100982.28;;;1.84;80.09
31092;BME280;67728;53.122;12.776;2023-04-27T00:58:07;100968.75;;;1.88;79.88
31092;BME280;67728;53.122;12.776;2023-04-27T00:59:39;100970.41;;;1.86;80.43
31092;BME280;67728;53.122;12.776;2023-04-27T01:01:11;100974.34;;;1.73;80.46
31092;BME280;67728;53.122;12.776;2023-04-27T01:02:43;100980.41;;;1.43;80.54
31092;BME280;67728;53.122;12.776;2023-04-27T01:04:17;100975.50;;;1.52;80.86
31092;BME280;67728;53.122;12.776;2023-04-27T01:05:48;100979.19;;;1.29;80.90
31092;BME280;67728;53.122;12.776;2023-04-27T01:07:23;100975.47;;;1.16;80.92
31092;BME280;67728;53.122;12.776;2023-04-27T01:08:55;100973.53;;;1.07;81.38
31092;BME280;67728;53.122;12.776;2023-04-27T01:10:27;100971.94;;;1.12;81.87
31092;BME280;67728;53.122;12.776;2023-04-27T01:11:59;100967.50;;;1.05;81.63
31092;BME280;67728;53.122;12.776;2023-04-27T01:13:32;100971.31;;;1.21;81.37
31092;BME280;67728;53.122;12.776;2023-04-27T01:15:04;100965.50;;;1.27;80.93
31092;BME280;67728;53.122;12.776;2023-04-27T01:16:35;100961.47;;;1.35;81.15
31092;BME280;67728;53.122;12.776;2023-04-27T01:18:08;100971.09;;;1.45;80.86
31092;BME280;67728;53.122;12.776;2023-04-27T01:19:39;100965.16;;;1.46;81.22
31092;BME280;67728;53.122;12.776;2023-04-27T01:21:11;100969.56;;;1.51;81.36
31092;BME280;67728;53.122;12.776;2023-04-27T01:22:42;100967.03;;;1.53;80.80
31092;BME280;67728;53.122;12.776;2023-04-27T01:24:15;100974.00;;;1.60;80.96
31092;BME280;67728;53.122;12.776;2023-04-27T01:25:47;100982.78;;;1.35;80.87
31092;BME280;67728;53.122;12.776;2023-04-27T01:27:18;100976.91;;;1.39;81.40
31092;BME280;67728;53.122;12.776;2023-04-27T01:28:50;100980.88;;;1.28;81.43
31092;BME280;67728;53.122;12.776;2023-04-27T01:30:22;100974.97;;;1.31;81.31
31092;BME280;67728;53.122;12.776;2023-04-27T01:31:54;100977.78;;;1.40;80.81
31092;BME280;67728;53.122;12.776;2023-04-27T01:33:25;100980.41;;;1.43;81.32
31092;BME280;67728;53.122;12.776;2023-04-27T01:34:57;100978.66;;;1.40;82.04
31092;BME280;67728;53.122;12.776;2023-04-27T01:36:29;100986.31;;;1.40;80.45
31092;BME280;67728;53.122;12.776;2023-04-27T01:38:01;100982.19;;;1.47;80.53
31092;BME280;67728;53.122;12.776;2023-04-27T01:39:34;100984.91;;;1.51;81.59
31092;BME280;67728;53.122;12.776;2023-04-27T01:41:06;100983.84;;;1.43;80.30
31092;BME280;67728;53.122;12.776;2023-04-27T01:42:38;100991.41;;;1.40;81.40
31092;BME280;67728;53.122;12.776;2023-04-27T01:44:10;100979.63;;;1.45;81.40
31092;BME280;67728;53.122;12.776;2023-04-27T01:45:42;100984.56;;;1.39;80.59
31092;BME280;67728;53.122;12.776;2023-04-27T01:47:14;100985.00;;;1.23;81.74
31092;BME280;67728;53.122;12.776;2023-04-27T01:48:46;100986.09;;;1.33;81.84
31092;BME280;67728;53.122;12.776;2023-04-27T01:50:17;100983.91;;;1.13;81.22
31092;BME280;67728;53.122;12.776;2023-04-27T01:51:49;100995.03;;;1.17;81.26
31092;BME280;67728;53.122;12.776;2023-04-27T01:53:21;100991.50;;;1.12;81.29
31092;BME280;67728;53.122;12.776;2023-04-27T01:54:54;100991.69;;;1.18;81.70
31092;BME280;67728;53.122;12.776;2023-04-27T01:56:26;100992.47;;;1.15;81.00
31092;BME280;67728;53.122;12.776;2023-04-27T01:57:56;100988.88;;;1.09;81.53
31092;BME280;67728;53.122;12.776;2023-04-27T01:59:28;100991.25;;;1.03;82.26
31092;BME280;67728;53.122;12.776;2023-04-27T02:01:00;100992.41;;;0.83;82.43
31092;BME280;67728;53.122;12.776;2023-04-27T02:02:32;100998.00;;;0.70;82.14
31092;BME280;67728;53.122;12.776;2023-04-27T02:04:02;100986.09;;;0.70;82.57
31092;BME280;67728;53.122;12.776;2023-04-27T02:05:34;100995.53;;;0.73;82.57
31092;BME280;67728;53.122;12.776;2023-04-27T02:07:06;100990.63;;;0.80;81.66
31092;BME280;67728;53.122;12.776;2023-04-27T02:08:37;100994.13;;;0.54;82.23
31092;BME280;67728;53.122;12.776;2023-04-27T02:10:11;100992.69;;;0.64;82.44
31092;BME280;67728;53.122;12.776;2023-04-27T02:11:41;100995.72;;;0.50;82.90
31092;BME280;67728;53.122;12.776;2023-04-27T02:13:13;101010.44;;;0.59;82.99
31092;BME280;67728;53.122;12.776;2023-04-27T02:15:07;101001.13;;;0.61;82.02
31092;BME280;67728;53.122;12.776;2023-04-27T02:16:38;101000.44;;;0.38;83.07
31092;BME280;67728;53.122;12.776;2023-04-27T02:18:10;100996.41;;;0.45;82.93
31092;BME280;67728;53.122;12.776;2023-04-27T02:19:41;101004.34;;;0.27;82.57
31092;BME280;67728;53.122;12.776;2023-04-27T02:21:12;101005.00;;;0.20;83.13
31092;BME280;67728;53.122;12.776;2023-04-27T02:22:44;101007.25;;;0.11;83.03
31092;BME280;67728;53.122;12.776;2023-04-27T02:24:16;101003.25;;;0.19;83.49
31092;BME280;67728;53.122;12.776;2023-04-27T02:25:49;101002.34;;;0.17;83.48
31092;BME280;67728;53.122;12.776;2023-04-27T02:27:20;101001.66;;;0.21;83.49
31092;BME280;67728;53.122;12.776;2023-04-27T02:28:52;101009.63;;;0.32;83.31
31092;BME280;67728;53.122;12.776;2023-04-27T02:30:24;101005.31;;;0.29;82.88
31092;BME280;67728;53.122;12.776;2023-04-27T02:31:55;101005.41;;;0.32;83.53
31092;BME280;67728;53.122;12.776;2023-04-27T02:33:26;101004.56;;;0.33;83.39
31092;BME280;67728;53.122;12.776;2023-04-27T02:34:58;100998.44;;;0.28;82.65
31092;BME280;67728;53.122;12.776;2023-04-27T02:36:28;101004.75;;;0.39;82.17
31092;BME280;67728;53.122;12.776;2023-04-27T02:38:01;101005.75;;;0.44;82.07
31092;BME280;67728;53.122;12.776;2023-04-27T02:39:32;101001.78;;;0.26;82.01
31092;BME280;67728;53.122;12.776;2023-04-27T02:41:05;101005.88;;;0.21;83.00
31092;BME280;67728;53.122;12.776;2023-04-27T02:42:36;101013.44;;;0.18;83.24
31092;BME280;67728;53.122;12.776;2023-04-27T02:44:08;101004.44;;;0.29;83.33
31092;BME280;67728;53.122;12.776;2023-04-27T02:45:39;101017.53;;;0.41;83.02
31092;BME280;67728;53.122;12.776;2023-04-27T02:47:10;101012.41;;;0.39;83.92
31092;BME280;67728;53.122;12.776;2023-04-27T02:48:42;101018.47;;;0.43;83.85
31092;BME280;67728;53.122;12.776;2023-04-27T02:50:14;101006.63;;;0.45;84.33
31092;BME280;67728;53.122;12.776;2023-04-27T02:51:45;101008.47;;;0.50;83.72
31092;BME280;67728;53.122;12.776;2023-04-27T02:53:16;101015.56;;;0.59;83.84
31092;BME280;67728;53.122;12.776;2023-04-27T02:54:48;101020.66;;;0.59;82.81
31092;BME280;67728;53.122;12.776;2023-04-27T02:56:21;101021.47;;;0.58;83.28
31092;BME280;67728;53.122;12.776;2023-04-27T02:57:53;101018.78;;;0.53;83.86
31092;BME280;67728;53.122;12.776;2023-04-27T02:59:24;101025.06;;;0.65;83.26
31092;BME280;67728;53.122;12.776;2023-04-27T03:00:56;101026.78;;;0.66;82.70
31092;BME280;67728;53.122;12.776;2023-04-27T03:02:27;101024.50;;;0.75;83.00
31092;BME280;67728;53.122;12.776;2023-04-27T03:03:59;101029.66;;;0.76;83.39
31092;BME280;67728;53.122;12.776;2023-04-27T03:05:31;101021.97;;;0.76;82.57
31092;BME280;67728;53.122;12.776;2023-04-27T03:07:02;101027.66;;;0.66;82.06
31092;BME280;67728;53.122;12.776;2023-04-27T03:08:34;101029.56;;;0.73;82.42
31092;BME280;67728;53.122;12.776;2023-04-27T03:10:06;101029.25;;;0.63;83.74
31092;BME280;67728;53.122;12.776;2023-04-27T03:11:39;101030.00;;;0.58;83.06
31092;BME280;67728;53.122;12.776;2023-04-27T03:13:12;101030.09;;;0.62;83.20
31092;BME280;67728;53.122;12.776;2023-04-27T03:14:43;101030.19;;;0.65;82.63
31092;BME280;67728;53.122;12.776;2023-04-27T03:16:15;101035.50;;;0.72;82.87
31092;BME280;67728;53.122;12.776;2023-04-27T03:17:47;101028.75;;;0.74;82.76
31092;BME280;67728;53.122;12.776;2023-04-27T03:19:19;101036.50;;;0.77;82.61
31092;BME280;67728;53.122;12.776;2023-04-27T03:20:50;101030.63;;;0.81;82.67
31092;BME280;67728;53.122;12.776;2023-04-27T03:22:22;101035.75;;;0.81;82.93
31092;BME280;67728;53.122;12.776;2023-04-27T03:23:53;101033.19;;;0.81;82.77
31092;BME280;67728;53.122;12.776;2023-04-27T03:25:24;101038.38;;;0.84;83.12
31092;BME280;67728;53.122;12.776;2023-04-27T03:26:56;101038.53;;;0.89;83.03
31092;BME280;67728;53.122;12.776;2023-04-27T03:28:28;101044.66;;;0.94;83.36
31092;BME280;67728;53.122;12.776;2023-04-27T03:29:59;101043.75;;;0.92;82.50
31092;BME280;67728;53.122;12.776;2023-04-27T03:31:31;101039.44;;;0.91;82.64
31092;BME280;67728;53.122;12.776;2023-04-27T03:33:02;101048.78;;;0.90;82.77
31092;BME280;67728;53.122;12.776;2023-04-27T03:34:33;101046.31;;;0.93;82.46
31092;BME280;67728;53.122;12.776;2023-04-27T03:36:06;101043.00;;;0.96;83.00
31092;BME280;67728;53.122;12.776;2023-04-27T03:37:38;101049.19;;;1.04;82.56
31092;BME280;67728;53.122;12.776;2023-04-27T03:39:09;101048.22;;;1.00;82.62
31092;BME280;67728;53.122;12.776;2023-04-27T03:40:41;101052.47;;;1.00;81.84
31092;BME280;67728;53.122;12.776;2023-04-27T03:42:13;101051.63;;;1.01;82.62
31092;BME280;67728;53.122;12.776;2023-04-27T03:43:45;101048.38;;;1.05;82.34
31092;BME280;67728;53.122;12.776;2023-04-27T03:45:16;101050.84;;;1.02;81.95
31092;BME280;67728;53.122;12.776;2023-04-27T03:46:48;101050.75;;;1.00;81.78
31092;BME280;67728;53.122;12.776;2023-04-27T03:48:20;101056.75;;;1.01;82.07
31092;BME280;67728;53.122;12.776;2023-04-27T03:49:52;101054.19;;;1.01;82.13
31092;BME280;67728;53.122;12.776;2023-04-27T03:51:23;101054.50;;;1.11;82.74
31092;BME280;67728;53.122;12.776;2023-04-27T03:52:56;101054.28;;;1.04;82.19
31092;BME280;67728;53.122;12.776;2023-04-27T03:54:29;101053.63;;;1.11;82.18
31092;BME280;67728;53.122;12.776;2023-04-27T03:56:01;101056.94;;;1.07;82.65
31092;BME280;67728;53.122;12.776;2023-04-27T03:57:34;101056.94;;;1.07;82.48
31092;BME280;67728;53.122;12.776;2023-04-27T03:59:06;101044.97;;;1.06;81.88
31092;BME280;67728;53.122;12.776;2023-04-27T04:00:38;101052.69;;;1.07;82.54
31092;BME280;67728;53.122;12.776;2023-04-27T04:02:10;101066.25;;;1.05;81.82
31092;BME280;67728;53.122;12.776;2023-04-27T04:03:41;101054.41;;;1.08;82.11
31092;BME280;67728;53.122;12.776;2023-04-27T04:05:12;101053.59;;;1.09;83.21
31092;BME280;67728;53.122;12.776;2023-04-27T04:06:44;101062.16;;;1.11;81.81
31092;BME280;67728;53.122;12.776;2023-04-27T04:08:16;101061.22;;;1.08;81.97
31092;BME280;67728;53.122;12.776;2023-04-27T04:09:48;101059.66;;;1.13;82.37
31092;BME280;67728;53.122;12.776;2023-04-27T04:11:19;101063.81;;;1.09;82.51
31092;BME280;67728;53.122;12.776;2023-04-27T04:12:53;101062.13;;;1.10;82.38
31092;BME280;67728;53.122;12.776;2023-04-27T04:14:26;101059.66;;;1.13;81.72
31092;BME280;67728;53.122;12.776;2023-04-27T04:16:04;101065.50;;;1.09;81.22
31092;BME280;67728;53.122;12.776;2023-04-27T04:17:37;101073.25;;;1.12;81.93
31092;BME280;67728;53.122;12.776;2023-04-27T04:19:07;101067.31;;;1.13;82.66
31092;BME280;67728;53.122;12.776;2023-04-27T04:20:39;101064.00;;;1.15;82.29
31092;BME280;67728;53.122;12.776;2023-04-27T04:22:10;101069.03;;;1.14;81.94
31092;BME280;67728;53.122;12.776;2023-04-27T04:23:42;101066.47;;;1.14;81.92
31092;BME280;67728;53.122;12.776;2023-04-27T04:25:14;101069.28;;;1.22;82.25
31092;BME280;67728;53.122;12.776;2023-04-27T04:26:46;101066.75;;;1.23;81.88
31092;BME280;67728;53.122;12.776;2023-04-27T04:28:19;101070.28;;;1.28;82.00
31092;BME280;67728;53.122;12.776;2023-04-27T04:29:51;101066.94;;;1.29;81.81
31092;BME280;67728;53.122;12.776;2023-04-27T04:31:24;101075.59;;;1.36;81.96
31092;BME280;67728;53.122;12.776;2023-04-27T04:32:56;101073.97;;;1.38;81.43
31092;BME280;67728;53.122;12.776;2023-04-27T04:34:29;101073.13;;;1.39;81.68
31092;BME280;67728;53.122;12.776;2023-04-27T04:36:02;101074.22;;;1.47;81.38
31092;BME280;67728;53.122;12.776;2023-04-27T04:37:34;101073.41;;;1.48;82.04
31092;BME280;67728;53.122;12.776;2023-04-27T04:39:06;101068.50;;;1.57;82.31
31092;BME280;67728;53.122;12.776;2023-04-27T04:40:39;101070.31;;;1.59;81.51
31092;BME280;67728;53.122;12.776;2023-04-27T04:42:11;101073.78;;;1.63;81.50
31092;BME280;67728;53.122;12.776;2023-04-27T04:43:44;101083.31;;;1.68;80.66
31092;BME280;67728;53.122;12.776;2023-04-27T04:45:17;101077.28;;;1.66;81.58
31092;BME280;67728;53.122;12.776;2023-04-27T04:46:49;101077.50;;;1.74;81.72
31092;BME280;67728;53.122;12.776;2023-04-27T04:48:21;101081.94;;;1.81;81.61
31092;BME280;67728;53.122;12.776;2023-04-27T04:49:53;101081.38;;;1.93;80.95
31092;BME280;67728;53.122;12.776;2023-04-27T04:51:25;101077.41;;;2.04;80.76
31092;BME280;67728;53.122;12.776;2023-04-27T04:52:56;101081.06;;;2.13;81.02
31092;BME280;67728;53.122;12.776;2023-04-27T04:54:28;101079.56;;;2.23;80.21
31092;BME280;67728;53.122;12.776;2023-04-27T04:56:07;101076.31;;;2.30;80.60
31092;BME280;67728;53.122;12.776;2023-04-27T04:57:39;101079.03;;;2.36;80.05
31092;BME280;67728;53.122;12.776;2023-04-27T04:59:12;101081.75;;;2.42;79.57
31092;BME280;67728;53.122;12.776;2023-04-27T05:00:42;101080.94;;;2.45;79.57
31092;BME280;67728;53.122;12.776;2023-04-27T05:02:14;101086.16;;;2.49;79.98
31092;BME280;67728;53.122;12.776;2023-04-27T05:03:46;101079.41;;;2.51;79.19
31092;BME280;67728;53.122;12.776;2023-04-27T05:05:17;101081.25;;;2.57;79.64
31092;BME280;67728;53.122;12.776;2023-04-27T05:06:49;101079.63;;;2.62;79.22
31092;BME280;67728;53.122;12.776;2023-04-27T05:08:22;101081.41;;;2.64;80.12
31092;BME280;67728;53.122;12.776;2023-04-27T05:09:54;101084.03;;;2.67;79.26
31092;BME280;67728;53.122;12.776;2023-04-27T05:11:26;101077.16;;;2.65;79.01
31092;BME280;67728;53.122;12.776;2023-04-27T05:12:57;101087.56;;;2.72;78.57
31092;BME280;67728;53.122;12.776;2023-04-27T05:14:30;101084.28;;;2.79;78.05
31092;BME280;67728;53.122;12.776;2023-04-27T05:16:03;101087.88;;;2.87;77.55
31092;BME280;67728;53.122;12.776;2023-04-27T05:17:34;101084.34;;;2.82;78.21
31092;BME280;67728;53.122;12.776;2023-04-27T05:19:06;101087.06;;;2.88;79.15
31092;BME280;67728;53.122;12.776;2023-04-27T05:20:38;101090.50;;;2.89;78.12
31092;BME280;67728;53.122;12.776;2023-04-27T05:22:10;101080.16;;;2.86;78.88
31092;BME280;67728;53.122;12.776;2023-04-27T05:23:42;101080.25;;;2.90;78.42
31092;BME280;67728;53.122;12.776;2023-04-27T05:25:13;101092.25;;;2.91;77.95
31092;BME280;67728;53.122;12.776;2023-04-27T05:26:45;101089.03;;;3.00;77.43
31092;BME280;67728;53.122;12.776;2023-04-27T05:28:16;101096.00;;;3.07;77.22
31092;BME280;67728;53.122;12.776;2023-04-27T05:29:49;101084.91;;;3.08;76.52
31092;BME280;67728;53.122;12.776;2023-04-27T05:31:21;101091.88;;;3.15;76.78
31092;BME280;67728;53.122;12.776;2023-04-27T05:32:53;101092.03;;;3.21;77.29
31092;BME280;67728;53.122;12.776;2023-04-27T05:34:24;101103.09;;;3.22;76.32
31092;BME280;67728;53.122;12.776;2023-04-27T05:35:56;101093.78;;;3.24;76.58
31092;BME280;67728;53.122;12.776;2023-04-27T05:37:27;101103.28;;;3.29;75.44
31092;BME280;67728;53.122;12.776;2023-04-27T05:38:59;101100.81;;;3.34;75.92
31092;BME280;67728;53.122;12.776;2023-04-27T05:40:31;101106.81;;;3.36;75.54
31092;BME280;67728;53.122;12.776;2023-04-27T05:42:03;101100.88;;;3.37;76.47
31092;BME280;67728;53.122;12.776;2023-04-27T05:43:35;101101.81;;;3.42;75.31
31092;BME280;67728;53.122;12.776;2023-04-27T05:45:10;101097.63;;;3.45;77.13
31092;BME280;67728;53.122;12.776;2023-04-27T05:46:41;101107.13;;;3.51;75.61
31092;BME280;67728;53.122;12.776;2023-04-27T05:48:13;101111.41;;;3.52;75.61
31092;BME280;67728;53.122;12.776;2023-04-27T05:49:49;101114.84;;;3.52;76.13
31092;BME280;67728;53.122;12.776;2023-04-27T05:51:21;101107.22;;;3.55;76.05
31092;BME280;67728;53.122;12.776;2023-04-27T05:52:52;101108.22;;;3.63;75.50
31092;BME280;67728;53.122;12.776;2023-04-27T05:54:23;101110.06;;;3.71;74.81
31092;BME280;67728;53.122;12.776;2023-04-27T05:55:55;101112.75;;;3.77;74.56
31092;BME280;67728;53.122;12.776;2023-04-27T05:57:29;101114.44;;;3.76;75.24
31092;BME280;67728;53.122;12.776;2023-04-27T05:59:00;101111.06;;;3.79;74.54
31092;BME280;67728;53.122;12.776;2023-04-27T06:00:34;101115.38;;;3.80;74.63
31092;BME280;67728;53.122;12.776;2023-04-27T06:02:06;101111.97;;;3.81;73.69
31092;BME280;67728;53.122;12.776;2023-04-27T06:03:37;101115.44;;;3.84;74.44
31092;BME280;67728;53.122;12.776;2023-04-27T06:05:09;101116.41;;;3.89;74.10
31092;BME280;67728;53.122;12.776;2023-04-27T06:06:41;101114.84;;;3.97;74.24
31092;BME280;67728;53.122;12.776;2023-04-27T06:08:14;101114.03;;;4.00;73.31
31092;BME280;67728;53.122;12.776;2023-04-27T06:09:45;101116.63;;;4.01;73.96
31092;BME280;67728;53.122;12.776;2023-04-27T06:11:17;101117.59;;;4.08;74.54
31092;BME280;67728;53.122;12.776;2023-04-27T06:12:48;101112.47;;;4.11;73.57
31092;BME280;67728;53.122;12.776;2023-04-27T06:14:20;101113.47;;;4.17;73.60
31092;BME280;67728;53.122;12.776;2023-04-27T06:15:53;101113.56;;;4.23;74.25
31092;BME280;67728;53.122;12.776;2023-04-27T06:17:25;101111.06;;;4.28;73.69
31092;BME280;67728;53.122;12.776;2023-04-27T06:18:56;101108.56;;;4.30;74.35
31092;BME280;67728;53.122;12.776;2023-04-27T06:20:28;101115.38;;;4.31;74.09
31092;BME280;67728;53.122;12.776;2023-04-27T06:22:00;101119.91;;;4.45;73.99
31092;BME280;67728;53.122;12.776;2023-04-27T06:23:32;101113.97;;;4.48;72.75
31092;BME280;67728;53.122;12.776;2023-04-27T06:25:05;101114.13;;;4.57;72.60
31092;BME280;67728;53.122;12.776;2023-04-27T06:26:37;101122.72;;;4.59;72.15
31092;BME280;67728;53.122;12.776;2023-04-27T06:28:08;101115.94;;;4.64;72.41
31092;BME280;67728;53.122;12.776;2023-04-27T06:29:40;101117.78;;;4.72;71.96
31092;BME280;67728;53.122;12.776;2023-04-27T06:31:13;101110.06;;;4.72;71.97
31092;BME280;67728;53.122;12.776;2023-04-27T06:32:45;101116.06;;;4.73;70.91
31092;BME280;67728;53.122;12.776;2023-04-27T06:34:17;101116.94;;;4.75;72.11
31092;BME280;67728;53.122;12.776;2023-04-27T06:35:48;101119.63;;;4.84;72.37
31092;BME280;67728;53.122;12.776;2023-04-27T06:37:21;101119.03;;;5.02;71.91
31092;BME280;67728;53.122;12.776;2023-04-27T06:38:52;101123.34;;;5.06;71.66
31092;BME280;67728;53.122;12.776;2023-04-27T06:40:26;101125.19;;;5.13;71.20
31092;BME280;67728;53.122;12.776;2023-04-27T06:41:57;101120.97;;;5.19;70.44
31092;BME280;67728;53.122;12.776;2023-04-27T06:43:29;101126.16;;;5.22;70.47
31092;BME280;67728;53.122;12.776;2023-04-27T06:45:01;101122.91;;;5.37;71.85
31092;BME280;67728;53.122;12.776;2023-04-27T06:46:33;101130.75;;;5.48;69.44
31092;BME280;67728;53.122;12.776;2023-04-27T06:48:05;101128.28;;;5.54;69.55
31092;BME280;67728;53.122;12.776;2023-04-27T06:49:37;101133.53;;;5.66;69.06
31092;BME280;67728;53.122;12.776;2023-04-27T06:51:09;101136.16;;;5.69;67.50
31092;BME280;67728;53.122;12.776;2023-04-27T06:52:40;101127.72;;;5.82;66.88
31092;BME280;67728;53.122;12.776;2023-04-27T06:54:12;101131.44;;;6.07;66.22
31092;BME280;67728;53.122;12.776;2023-04-27T06:55:44;101136.03;;;6.44;66.43
31092;BME280;67728;53.122;12.776;2023-04-27T06:57:16;101136.31;;;6.76;64.92
31092;BME280;67728;53.122;12.776;2023-04-27T06:58:47;101124.41;;;6.97;63.44
31092;BME280;67728;53.122;12.776;2023-04-27T07:00:19;101129.56;;;6.99;63.04
31092;BME280;67728;53.122;12.776;2023-04-27T07:01:52;101131.31;;;7.06;63.76
31092;BME280;67728;53.122;12.776;2023-04-27T07:03:24;101127.13;;;7.26;62.54
31092;BME280;67728;53.122;12.776;2023-04-27T07:04:55;101130.66;;;7.51;62.73
31092;BME280;67728;53.122;12.776;2023-04-27T07:06:27;101132.91;;;6.83;62.21
31092;BME280;67728;53.122;12.776;2023-04-27T07:07:59;101126.38;;;7.60;63.71
31092;BME280;67728;53.122;12.776;2023-04-27T07:09:30;101129.72;;;7.31;62.21
31092;BME280;67728;53.122;12.776;2023-04-27T07:11:02;101131.53;;;7.51;61.49
31092;BME280;67728;53.122;12.776;2023-04-27T07:12:34;101136.72;;;7.59;58.83
31092;BME280;67728;53.122;12.776;2023-04-27T07:14:06;101136.69;;;7.48;59.53
31092;BME280;67728;53.122;12.776;2023-04-27T07:15:37;101132.28;;;7.31;58.97
31092;BME280;67728;53.122;12.776;2023-04-27T07:17:10;101130.63;;;7.42;58.57
31092;BME280;67728;53.122;12.776;2023-04-27T07:18:42;101126.38;;;7.53;56.96
31092;BME280;67728;53.122;12.776;2023-04-27T07:20:14;101128.97;;;7.60;57.76
31092;BME280;67728;53.122;12.776;2023-04-27T07:21:46;101121.25;;;7.65;57.14
31092;BME280;67728;53.122;12.776;2023-04-27T07:23:19;101130.75;;;7.79;57.42
31092;BME280;67728;53.122;12.776;2023-04-27T07:24:51;101127.16;;;7.32;55.76
31092;BME280;67728;53.122;12.776;2023-04-27T07:26:22;101126.22;;;7.18;56.67
31092;BME280;67728;53.122;12.776;2023-04-27T07:27:54;101134.09;;;7.45;56.17
31092;BME280;67728;53.122;12.776;2023-04-27T07:29:26;101133.97;;;7.18;55.42
31092;BME280;67728;53.122;12.776;2023-04-27T07:30:58;101131.34;;;7.12;55.30
31092;BME280;67728;53.122;12.776;2023-04-27T07:32:32;101135.78;;;7.42;55.32
31092;BME280;67728;53.122;12.776;2023-04-27T07:34:03;101138.31;;;7.30;53.74
31092;BME280;67728;53.122;12.776;2023-04-27T07:35:36;101138.41;;;7.48;56.10
31092;BME280;67728;53.122;12.776;2023-04-27T07:37:08;101144.41;;;7.45;55.42
31092;BME280;67728;53.122;12.776;2023-04-27T07:38:39;101144.44;;;7.54;54.00
31092;BME280;67728;53.122;12.776;2023-04-27T07:40:12;101144.31;;;7.30;55.18
31092;BME280;67728;53.122;12.776;2023-04-27T07:41:45;101135.84;;;7.55;53.87
31092;BME280;67728;53.122;12.776;2023-04-27T07:43:17;101142.75;;;7.68;55.09
31092;BME280;67728;53.122;12.776;2023-04-27T07:44:49;101147.16;;;7.94;52.90
31092;BME280;67728;53.122;12.776;2023-04-27T07:46:21;101141.84;;;7.50;52.97
31092;BME280;67728;53.122;12.776;2023-04-27T07:47:55;101148.88;;;8.04;54.40
31092;BME280;67728;53.122;12.776;2023-04-27T07:49:27;101142.06;;;8.48;51.55
31092;BME280;67728;53.122;12.776;2023-04-27T07:50:58;101138.59;;;8.58;51.83
31092;BME280;67728;53.122;12.776;2023-04-27T07:52:30;101140.34;;;8.61;49.98
31092;BME280;67728;53.122;12.776;2023-04-27T07:54:02;101142.94;;;8.32;48.40
31092;BME280;67728;53.122;12.776;2023-04-27T07:55:33;101140.34;;;8.70;51.03
31092;BME280;67728;53.122;12.776;2023-04-27T07:57:07;101151.56;;;8.54;50.60
31092;BME280;67728;53.122;12.776;2023-04-27T07:58:38;101145.50;;;8.27;50.00
31092;BME280;67728;53.122;12.776;2023-04-27T08:00:11;101145.50;;;8.83;50.08
31092;BME280;67728;53.122;12.776;2023-04-27T08:01:43;101145.38;;;9.26;50.43